Time;durP1;ratioP1;P1;durP2;ratioP2;P2;SDS_P1;SDS_P2;PMS_P1;PMS_P2;Temp;Humidity;BMP_temperature;BMP_pressure;BME280_temperature;BME280_humidity;BME280_pressure;Samples;Min_cycle;Max_cycle;Signal;HPM_P1;HPM_P2
2022/10/03 00:02:05;;;;;;;12.93;7.43;;;11.70;99.90;;;;;;5045129;28;20483;-62
2022/10/03 00:05:01;;;;;;;19.03;6.97;;;11.80;99.90;;;;;;4964314;28;20513;-62
2022/10/03 00:07:49;;;;;;;20.33;7.83;;;11.80;99.90;;;;;;5042298;28;20934;-62
2022/10/03 00:10:25;;;;;;;12.57;6.20;;;13.00;99.90;;;;;;5017114;28;20570;-62
2022/10/03 00:13:04;;;;;;;24.77;7.23;;;11.80;99.90;;;;;;5040726;28;20552;-62
2022/10/03 00:15:38;;;;;;;13.83;8.73;;;11.80;99.90;;;;;;5048036;28;20488;-62
2022/10/03 00:18:18;;;;;;;24.53;7.60;;;11.70;99.90;;;;;;5044412;28;20479;-62
2022/10/03 00:20:54;;;;;;;9.73;5.50;;;11.70;99.90;;;;;;5047533;28;20566;-62
2022/10/03 00:23:23;;;;;;;17.63;10.17;;;;;;;;;;5049576;28;21088;-62
2022/10/03 00:26:25;;;;;;;14.70;7.07;;;11.70;99.90;;;;;;5048494;28;20971;-61
2022/10/03 00:28:56;;;;;;;22.97;6.77;;;11.70;99.90;;;;;;5037978;28;20483;-62
2022/10/03 00:31:34;;;;;;;21.27;13.20;;;11.70;99.90;;;;;;5047529;28;20486;-62
2022/10/03 00:34:12;;;;;;;12.70;7.17;;;11.70;99.90;;;;;;5049299;28;20494;-62
2022/10/03 00:36:49;;;;;;;12.73;8.60;;;11.70;99.90;;;;;;5048197;28;21699;-62
2022/10/03 00:39:29;;;;;;;22.87;9.50;;;11.70;99.90;;;;;;5033792;28;20993;-62
2022/10/03 00:42:23;;;;;;;17.17;10.90;;;;;;;;;;5045244;28;20506;-62
2022/10/03 00:45:29;;;;;;;12.60;7.60;;;11.70;99.90;;;;;;5048782;28;20475;-61
2022/10/03 00:48:46;;;;;;;23.43;10.70;;;11.70;99.90;;;;;;5040415;28;21079;-62
2022/10/03 00:51:32;;;;;;;20.60;11.30;;;11.60;99.90;;;;;;5042678;28;20475;-62
2022/10/03 00:54:11;;;;;;;22.70;8.53;;;11.70;99.90;;;;;;5048517;28;20480;-62
2022/10/03 00:56:55;;;;;;;20.53;8.47;;;;;;;;;;5048370;28;20494;-63
2022/10/03 00:59:32;;;;;;;25.97;11.63;;;11.60;99.90;;;;;;5045898;28;20459;-62
2022/10/03 01:02:16;;;;;;;19.93;9.73;;;11.60;99.90;;;;;;5046786;28;20471;-62
2022/10/03 01:04:55;;;;;;;10.70;7.00;;;11.60;99.90;;;;;;5037891;28;20510;-62
2022/10/03 01:07:46;;;;;;;30.07;12.37;;;11.60;99.90;;;;;;5043622;28;21130;-62
2022/10/03 01:10:20;;;;;;;12.70;4.47;;;11.60;99.90;;;;;;5034625;28;20986;-62
2022/10/03 01:13:05;;;;;;;10.50;5.70;;;11.50;99.90;;;;;;5038242;28;20482;-61
2022/10/03 01:15:39;;;;;;;22.87;8.67;;;;;;;;;;5049987;28;20479;-62
2022/10/03 01:18:13;;;;;;;14.63;7.03;;;;;;;;;;5054858;28;23015;-62
2022/10/03 01:20:49;;;;;;;23.77;7.50;;;11.40;99.90;;;;;;5072887;28;20489;-62
2022/10/03 01:23:38;;;;;;;30.07;6.83;;;11.40;99.90;;;;;;5026024;28;20965;-62
2022/10/03 01:26:26;;;;;;;21.93;7.33;;;11.40;99.90;;;;;;5033406;28;20786;-62
2022/10/03 01:31:46;;;;;;;23.83;6.43;;;;;;;;;;5024262;28;20533;-62
2022/10/03 01:34:21;;;;;;;7.47;5.30;;;11.30;99.90;;;;;;5033228;28;20483;-62
2022/10/03 01:37:01;;;;;;;14.27;6.23;;;11.20;99.90;;;;;;5022759;28;20518;-62
2022/10/03 01:39:36;;;;;;;18.93;9.13;;;11.20;99.90;;;;;;5030121;28;20476;-62
2022/10/03 01:42:10;;;;;;;23.27;7.73;;;11.10;99.90;;;;;;5032565;28;20484;-62
2022/10/03 01:44:52;;;;;;;16.67;8.10;;;11.00;99.90;;;;;;5039915;28;20492;-62
2022/10/03 01:47:27;;;;;;;23.13;8.10;;;11.00;99.90;;;;;;5031067;28;20778;-62
2022/10/03 01:49:58;;;;;;;14.53;6.23;;;;;;;;;;5029484;28;20493;-62
2022/10/03 01:52:33;;;;;;;21.33;10.67;;;;;;;;;;5026135;28;20473;-64
2022/10/03 01:55:08;;;;;;;20.23;8.63;;;11.20;99.90;;;;;;5033204;28;21026;-61
2022/10/03 01:57:39;;;;;;;23.23;9.40;;;;;;;;;;5039320;28;20606;-60
2022/10/03 02:00:13;;;;;;;31.70;9.27;;;11.20;99.90;;;;;;5034371;28;20498;-61
2022/10/03 02:02:43;;;;;;;27.80;14.50;;;;;;;;;;5038688;28;20482;-61
2022/10/03 02:05:18;;;;;;;25.17;11.47;;;11.30;99.90;;;;;;5038586;28;20959;-61
2022/10/03 02:07:54;;;;;;;23.97;9.50;;;11.30;99.90;;;;;;5032762;28;20480;-61
2022/10/03 02:10:31;;;;;;;30.67;13.00;;;11.20;99.90;;;;;;5049258;28;20482;-61
2022/10/03 02:13:07;;;;;;;30.23;7.77;;;10.90;99.90;;;;;;5063327;28;20475;-61
2022/10/03 02:15:48;;;;;;;33.87;8.67;;;10.50;99.90;;;;;;5069110;28;20493;-61
2022/10/03 02:18:23;;;;;;;17.20;6.60;;;10.30;99.90;;;;;;5067015;28;20489;-60
2022/10/03 02:20:57;;;;;;;16.53;7.60;;;10.30;99.90;;;;;;5071769;28;20551;-60
2022/10/03 02:23:26;;;;;;;17.67;7.30;;;;;;;;;;5069964;28;20763;-60
2022/10/03 02:26:03;;;;;;;15.27;7.70;;;10.30;99.90;;;;;;5070397;28;20479;-60
2022/10/03 02:28:58;;;;;;;18.10;6.40;;;10.10;99.90;;;;;;5071526;28;20848;-61
2022/10/03 02:31:57;;;;;;;41.47;11.83;;;10.00;99.90;;;;;;5061440;28;20975;-61
2022/10/03 02:34:59;;;;;;;21.20;10.13;;;9.90;99.90;;;;;;5059375;28;20470;-60
2022/10/03 02:37:47;;;;;;;33.03;12.13;;;9.90;99.90;;;;;;5070234;28;20484;-61
2022/10/03 02:40:26;;;;;;;13.90;5.70;;;;;;;;;;5069748;28;20497;-61
2022/10/03 02:43:29;;;;;;;12.60;5.60;;;9.80;99.90;;;;;;5058822;28;20969;-60
2022/10/03 02:46:24;;;;;;;23.70;7.10;;;9.80;99.90;;;;;;5022484;28;20478;-61
2022/10/03 02:49:11;;;;;;;16.30;7.53;;;9.90;99.90;;;;;;5068354;28;20485;-61
2022/10/03 02:51:57;;;;;;;24.00;7.10;;;10.00;99.90;;;;;;5066903;28;20494;-60
2022/10/03 02:55:05;;;;;;;24.90;10.40;;;10.10;99.90;;;;;;5072059;28;20482;-61
2022/10/03 02:58:05;;;;;;;30.27;9.57;;;10.10;99.90;;;;;;5075523;28;20485;-61
2022/10/03 03:00:39;;;;;;;21.67;10.23;;;10.10;99.90;;;;;;5072620;28;20512;-62
2022/10/03 03:03:45;;;;;;;17.07;4.57;;;10.20;99.90;;;;;;5068691;28;20568;-61
2022/10/03 03:06:31;;;;;;;22.93;5.63;;;10.20;99.90;;;;;;5069717;28;20803;-61
2022/10/03 03:09:34;;;;;;;15.87;6.53;;;10.30;99.90;;;;;;5057716;28;20505;-61
2022/10/03 03:12:28;;;;;;;16.00;7.80;;;10.40;99.90;;;;;;5060703;28;20918;-61
2022/10/03 03:15:46;;;;;;;21.33;7.57;;;10.50;99.90;;;;;;5035839;28;20483;-60
2022/10/03 03:18:18;;;;;;;11.53;4.30;;;;;;;;;;5074914;28;20475;-61
2022/10/03 03:20:58;;;;;;;17.83;6.47;;;10.60;99.90;;;;;;5073699;28;20486;-60
2022/10/03 03:23:49;;;;;;;27.90;8.73;;;10.60;99.90;;;;;;5063391;28;20462;-61
2022/10/03 03:26:37;;;;;;;19.40;5.53;;;10.70;99.90;;;;;;5061781;28;20518;-61
2022/10/03 03:29:15;;;;;;;16.90;6.60;;;10.60;99.90;;;;;;5065449;28;21219;-61
2022/10/03 03:31:53;;;;;;;14.97;7.47;;;10.60;99.90;;;;;;5074728;28;20482;-60
2022/10/03 03:34:29;;;;;;;21.73;8.70;;;10.50;99.90;;;;;;5069509;28;20531;-61
2022/10/03 03:37:01;;;;;;;15.87;6.40;;;10.60;99.90;;;;;;5054800;28;21009;-61
2022/10/03 03:39:57;;;;;;;31.97;11.13;;;10.70;99.90;;;;;;5062280;28;20466;-61
2022/10/03 03:42:43;;;;;;;26.00;10.10;;;10.70;99.90;;;;;;5070794;28;20474;-61
2022/10/03 03:45:18;;;;;;;34.80;5.50;;;10.60;99.90;;;;;;5072382;28;20966;-61
2022/10/03 03:48:11;;;;;;;21.07;7.90;;;10.50;99.90;;;;;;5073216;28;20879;-61
2022/10/03 03:50:48;;;;;;;26.17;7.70;;;10.20;99.90;;;;;;5075073;28;20482;-62
2022/10/03 03:53:44;;;;;;;22.83;6.73;;;10.20;99.90;;;;;;5071666;28;20481;-60
2022/10/03 03:56:38;;;;;;;12.50;4.40;;;10.10;99.90;;;;;;5068237;28;20474;-61
2022/10/03 03:59:19;;;;;;;14.97;6.53;;;10.10;99.90;;;;;;5058047;28;20990;-61
2022/10/03 04:01:52;;;;;;;16.47;6.17;;;;;;;;;;5063524;28;20486;-61
2022/10/03 04:04:41;;;;;;;16.97;6.87;;;10.30;99.90;;;;;;5056395;28;20486;-60
2022/10/03 04:07:20;;;;;;;12.60;4.67;;;10.30;99.90;;;;;;5064552;28;20466;-61
2022/10/03 04:10:04;;;;;;;15.70;6.37;;;10.30;99.90;;;;;;5072722;28;20489;-60
2022/10/03 04:12:45;;;;;;;14.73;5.20;;;10.10;99.90;;;;;;5060943;28;20458;-60
2022/10/03 04:15:29;;;;;;;19.10;3.40;;;10.10;99.90;;;;;;5063293;28;20486;-61
2022/10/03 04:21:38;;;;;;;17.17;7.47;;;10.10;99.90;;;;;;5064029;28;20473;-60
2022/10/03 04:24:23;;;;;;;23.80;5.97;;;;;;;;;;5060929;28;20471;-59
2022/10/03 04:27:08;;;;;;;21.53;7.10;;;9.90;99.90;;;;;;5065015;28;20486;-60
2022/10/03 04:29:54;;;;;;;24.07;6.43;;;;;;;;;;5059678;28;20478;-60
2022/10/03 04:32:41;;;;;;;19.03;5.80;;;9.80;99.90;;;;;;5070080;28;20489;-60
2022/10/03 04:35:32;;;;;;;19.93;6.07;;;9.80;99.90;;;;;;5061230;28;20494;-60
2022/10/03 04:38:10;;;;;;;22.87;7.57;;;9.70;99.90;;;;;;5068672;28;21010;-60
2022/10/03 04:40:45;;;;;;;34.70;7.07;;;9.60;99.90;;;;;;5065581;28;20879;-60
2022/10/03 04:43:16;;;;;;;27.17;4.83;;;;;;;;;;5069897;28;20551;-60
2022/10/03 04:45:54;;;;;;;14.13;5.80;;;;;;;;;;5074679;28;21017;-60
2022/10/03 04:48:29;;;;;;;22.33;6.43;;;;;;;;;;5072604;28;20492;-61
2022/10/03 04:51:03;;;;;;;29.03;7.13;;;;;;;;;;5075226;28;20485;-60
2022/10/03 04:53:41;;;;;;;32.27;9.53;;;9.20;99.90;;;;;;5071992;28;20478;-60
2022/10/03 04:56:21;;;;;;;32.67;6.70;;;9.10;99.90;;;;;;5063612;28;20470;-61
2022/10/03 04:58:55;;;;;;;15.73;5.17;;;9.10;99.90;;;;;;5074012;28;22689;-60
2022/10/03 05:01:26;;;;;;;33.20;10.77;;;;;;;;;;5071376;28;20578;-60
2022/10/03 05:04:04;;;;;;;31.17;6.70;;;9.20;99.90;;;;;;5073744;28;21132;-61
2022/10/03 05:06:42;;;;;;;22.73;8.67;;;9.30;99.90;;;;;;5072720;28;20575;-61
2022/10/03 05:09:21;;;;;;;19.67;4.60;;;9.30;99.90;;;;;;5051233;28;20841;-60
2022/10/03 05:11:58;;;;;;;22.73;6.43;;;9.30;99.90;;;;;;5068943;28;20587;-60
2022/10/03 05:14:40;;;;;;;35.53;9.70;;;9.40;99.90;;;;;;5070606;28;20861;-61
2022/10/03 05:17:18;;;;;;;33.93;6.53;;;9.40;99.90;;;;;;5055754;28;20471;-60
2022/10/03 05:20:04;;;;;;;14.13;5.37;;;9.50;99.90;;;;;;5061434;28;20498;-60
2022/10/03 05:22:42;;;;;;;18.03;9.00;;;10.70;99.90;;;;;;5060374;28;20965;-60
2022/10/03 05:25:31;;;;;;;14.83;4.80;;;9.70;99.90;;;;;;5061077;28;21034;-61
2022/10/03 05:28:06;;;;;;;31.87;6.03;;;9.80;99.90;;;;;;5070813;28;20478;-60
2022/10/03 05:30:44;;;;;;;28.53;7.70;;;9.90;99.90;;;;;;5072188;28;20489;-60
2022/10/03 05:33:24;;;;;;;21.90;4.77;;;10.00;99.90;;;;;;5060367;28;20941;-60
2022/10/03 05:36:10;;;;;;;9.43;5.63;;;10.00;99.90;;;;;;5051821;28;20494;-60
2022/10/03 05:39:00;;;;;;;12.47;3.97;;;10.10;99.90;;;;;;5078579;28;20837;-60
2022/10/03 05:41:28;;;;;;;19.40;8.47;;;;;;;;;;5051965;28;20475;-61
2022/10/03 05:44:02;;;;;;;14.97;6.07;;;10.20;99.90;;;;;;5073010;28;20495;-60
2022/10/03 05:46:55;;;;;;;26.07;8.43;;;10.20;99.90;;;;;;5069638;28;20925;-61
2022/10/03 05:49:49;;;;;;;39.73;11.43;;;9.60;99.90;;;;;;5070586;28;20809;-60
2022/10/03 05:52:39;;;;;;;22.27;4.63;;;10.20;99.90;;;;;;5059587;28;20715;-60
2022/10/03 05:55:23;;;;;;;11.33;7.20;;;10.20;99.90;;;;;;5072862;28;20477;-60
2022/10/03 05:58:15;;;;;;;20.03;9.50;;;10.00;99.90;;;;;;5061824;28;20473;-60
2022/10/03 06:01:03;;;;;;;22.47;7.10;;;9.80;99.90;;;;;;5062030;28;20473;-60
2022/10/03 06:04:00;;;;;;;27.07;10.47;;;9.60;99.90;;;;;;5072585;28;20474;-60
2022/10/03 06:06:41;;;;;;;24.90;10.00;;;9.40;99.90;;;;;;5071516;28;20486;-60
2022/10/03 06:09:23;;;;;;;11.70;5.70;;;;;;;;;;5072342;28;20478;-60
2022/10/03 06:12:03;;;;;;;21.03;6.13;;;9.40;99.90;;;;;;5059796;28;20960;-60
2022/10/03 06:15:01;;;;;;;29.53;10.43;;;9.40;99.90;;;;;;5072469;28;20486;-59
2022/10/03 06:18:01;;;;;;;21.77;8.33;;;9.40;99.90;;;;;;5069950;28;20565;-60
2022/10/03 06:20:59;;;;;;;40.13;10.03;;;9.50;99.90;;;;;;5067479;28;21017;-60
2022/10/03 06:24:02;;;;;;;21.20;8.60;;;9.50;99.90;;;;;;5069671;28;20570;-61
2022/10/03 06:27:05;;;;;;;21.57;7.70;;;9.60;99.90;;;;;;5068388;28;20478;-60
2022/10/03 06:30:12;;;;;;;26.83;8.03;;;9.70;99.90;;;;;;5028599;28;20474;-60
2022/10/03 06:33:21;;;;;;;11.00;4.20;;;9.70;99.90;;;;;;5006325;28;20491;-60
2022/10/03 06:36:06;;;;;;;17.33;6.17;;;;;;;;;;5001451;28;20496;-60
2022/10/03 06:39:22;;;;;;;21.23;7.20;;;9.80;99.90;;;;;;5064681;28;20493;-60
2022/10/03 06:42:21;;;;;;;26.17;8.07;;;9.80;99.90;;;;;;5058047;28;20482;-61
2022/10/03 06:45:12;;;;;;;12.30;5.60;;;9.90;99.90;;;;;;5072125;28;20497;-61
2022/10/03 06:48:00;;;;;;;34.10;7.60;;;11.40;99.90;;;;;;5059472;28;20474;-60
2022/10/03 06:50:46;;;;;;;28.00;10.03;;;;;;;;;;5072826;28;20478;-60
2022/10/03 06:53:29;;;;;;;13.30;5.07;;;9.80;99.90;;;;;;5059287;28;20563;-60
2022/10/03 06:56:30;;;;;;;28.17;8.97;;;9.80;99.90;;;;;;5071196;28;20482;-61
2022/10/03 06:59:18;;;;;;;19.63;7.23;;;9.90;99.90;;;;;;5056088;28;20810;-60
2022/10/03 07:02:07;;;;;;;9.20;5.43;;;10.10;99.90;;;;;;5073104;28;20474;-60
2022/10/03 07:05:23;;;;;;;26.40;6.37;;;10.30;99.90;;;;;;5072355;28;20482;-60
2022/10/03 07:08:24;;;;;;;24.20;9.23;;;10.40;99.90;;;;;;5060468;28;20887;-60
2022/10/03 07:11:07;;;;;;;16.60;7.33;;;10.50;99.90;;;;;;5069613;28;20634;-61
2022/10/03 07:14:09;;;;;;;14.30;5.30;;;10.60;99.90;;;;;;5075721;28;20988;-60
2022/10/03 07:17:06;;;;;;;7.97;5.00;;;10.70;99.90;;;;;;5070282;28;22017;-60
2022/10/03 07:20:01;;;;;;;11.93;6.77;;;10.80;99.90;;;;;;5078345;28;20490;-62
2022/10/03 07:22:43;;;;;;;15.80;7.03;;;;;;;;;;5073218;28;20485;-62
2022/10/03 07:25:50;;;;;;;5.70;3.40;;;11.10;99.90;;;;;;5053634;28;20881;-62
2022/10/03 07:28:51;;;;;;;11.57;5.77;;;11.20;99.90;;;;;;5072436;28;21015;-62
2022/10/03 07:31:32;;;;;;;19.33;6.50;;;11.30;99.90;;;;;;5075309;28;20980;-62
2022/10/03 07:34:19;;;;;;;26.17;5.60;;;;;;;;;;5076047;28;20470;-61
2022/10/03 07:40:15;;;;;;;20.13;5.50;;;11.40;99.90;;;;;;5075272;28;20477;-60
2022/10/03 07:43:08;;;;;;;11.87;6.40;;;11.50;99.90;;;;;;5064698;28;20487;-61
2022/10/03 07:45:38;;;;;;;17.83;5.80;;;11.60;99.90;;;;;;5055990;28;20474;-60
2022/10/03 07:48:23;;;;;;;23.87;7.40;;;;;;;;;;5073347;28;20481;-60
2022/10/03 07:51:20;;;;;;;18.33;8.43;;;11.70;99.90;;;;;;5076085;28;21194;-60
2022/10/03 07:54:06;;;;;;;14.60;6.60;;;;;;;;;;5065515;28;20493;-61
2022/10/03 07:57:03;;;;;;;49.13;8.93;;;11.80;99.90;;;;;;5073828;28;20477;-62
2022/10/03 08:00:04;;;;;;;22.70;8.50;;;12.00;99.90;;;;;;5072305;28;20577;-61
2022/10/03 08:03:15;;;;;;;15.90;7.37;;;12.10;99.90;;;;;;5074769;28;20478;-61
2022/10/03 08:06:04;;;;;;;19.53;6.93;;;12.10;99.90;;;;;;5068954;28;21130;-61
2022/10/03 08:08:56;;;;;;;17.63;8.43;;;12.20;99.90;;;;;;5070326;28;20563;-62
2022/10/03 08:11:45;;;;;;;29.33;10.90;;;12.30;99.90;;;;;;5067959;28;20889;-61
2022/10/03 08:14:19;;;;;;;10.37;5.93;;;12.40;99.90;;;;;;5074692;28;20505;-61
2022/10/03 08:17:20;;;;;;;14.30;6.10;;;12.50;99.90;;;;;;5074377;28;20482;-61
2022/10/03 08:20:22;;;;;;;12.90;5.53;;;12.70;99.90;;;;;;5070164;28;20483;-62
2022/10/03 08:23:03;;;;;;;9.60;5.70;;;13.50;99.90;;;;;;5058959;28;20565;-61
2022/10/03 08:25:49;;;;;;;22.00;7.20;;;12.90;99.90;;;;;;5066440;28;20482;-61
2022/10/03 08:28:35;;;;;;;8.17;5.77;;;12.90;99.90;;;;;;5069622;28;20475;-61
2022/10/03 08:31:13;;;;;;;17.50;7.33;;;;;;;;;;5060833;28;20479;-62
2022/10/03 08:33:59;;;;;;;8.37;5.20;;;13.00;99.90;;;;;;5074293;28;20478;-61
2022/10/03 08:37:01;;;;;;;12.20;8.17;;;13.00;99.90;;;;;;5061354;28;20466;-62
2022/10/03 08:39:47;;;;;;;11.80;8.10;;;13.00;99.90;;;;;;5061392;28;20564;-62
2022/10/03 08:42:40;;;;;;;14.40;5.97;;;13.10;99.90;;;;;;5072162;28;20508;-62
2022/10/03 08:45:38;;;;;;;13.83;6.67;;;13.10;99.90;;;;;;5058953;28;20455;-62
2022/10/03 08:48:43;;;;;;;16.77;7.90;;;13.20;99.90;;;;;;5067820;28;20491;-62
2022/10/03 08:51:51;;;;;;;13.10;7.80;;;13.30;99.90;;;;;;5073154;28;21299;-62
2022/10/03 08:54:40;;;;;;;19.57;9.80;;;;;;;;;;5073621;28;20474;-61
2022/10/03 08:57:29;;;;;;;12.83;7.90;;;13.30;99.90;;;;;;5073704;28;20613;-62
2022/10/03 09:00:10;;;;;;;16.27;9.17;;;13.40;99.90;;;;;;5062648;28;20466;-62
2022/10/03 09:03:28;;;;;;;26.40;9.40;;;13.50;99.90;;;;;;5073308;28;20986;-62
2022/10/03 09:06:28;;;;;;;20.30;9.87;;;13.70;99.90;;;;;;5062459;28;20679;-62
2022/10/03 09:09:10;;;;;;;14.23;8.90;;;13.80;99.90;;;;;;5060736;28;20489;-61
2022/10/03 09:11:46;;;;;;;30.73;10.13;;;;;;;;;;5059520;28;20521;-62
2022/10/03 09:14:37;;;;;;;15.27;10.30;;;;;;;;;;5080924;28;21045;-62
2022/10/03 09:17:41;;;;;;;21.33;11.63;;;14.20;99.90;;;;;;5064511;28;20584;-62
2022/10/03 09:20:26;;;;;;;27.70;10.77;;;14.10;99.90;;;;;;5072708;28;21341;-62
2022/10/03 09:23:34;;;;;;;32.53;12.73;;;14.30;99.90;;;;;;5062087;28;20474;-62
2022/10/03 09:26:29;;;;;;;27.87;14.63;;;14.50;99.90;;;;;;5061840;28;20474;-62
2022/10/03 09:29:32;;;;;;;22.83;12.70;;;14.70;99.90;;;;;;5058609;28;20479;-61
2022/10/03 09:32:42;;;;;;;19.77;14.13;;;15.20;99.90;;;;;;5060106;28;20481;-62
2022/10/03 09:35:54;;;;;;;30.70;14.80;;;15.60;99.90;;;;;;5067671;28;20582;-62
2022/10/03 09:38:48;;;;;;;27.30;17.47;;;16.20;99.90;;;;;;4984555;28;20474;-62
2022/10/03 09:41:35;;;;;;;25.70;14.10;;;16.70;99.90;;;;;;5068946;28;20486;-62
2022/10/03 09:44:21;;;;;;;20.27;13.07;;;17.00;99.90;;;;;;5061705;28;20470;-62
2022/10/03 09:50:20;;;;;;;15.87;10.60;;;17.60;99.90;;;;;;5062772;28;20485;-62
2022/10/03 09:53:17;;;;;;;14.30;9.87;;;17.60;99.90;;;;;;5048711;28;20478;-62
2022/10/03 09:56:09;;;;;;;22.13;10.30;;;17.90;99.90;;;;;;5069535;28;20560;-62
2022/10/03 09:59:04;;;;;;;19.53;11.10;;;18.20;99.90;;;;;;5070056;28;20483;-62
2022/10/03 10:01:35;;;;;;;27.90;13.20;;;18.40;99.90;;;;;;5037498;28;20479;-62
2022/10/03 10:04:34;;;;;;;20.23;10.10;;;18.60;99.90;;;;;;5070038;28;20805;-62
2022/10/03 10:07:36;;;;;;;16.23;10.27;;;18.80;99.90;;;;;;5061986;28;20516;-62
2022/10/03 10:10:33;;;;;;;19.20;11.70;;;19.00;99.90;;;;;;5069622;28;20474;-62
2022/10/03 10:13:15;;;;;;;17.83;10.53;;;19.00;99.90;;;;;;5062218;28;20474;-62
2022/10/03 10:16:10;;;;;;;19.60;7.47;;;18.90;98.70;;;;;;5070796;28;20914;-62
2022/10/03 10:19:06;;;;;;;14.30;8.87;;;18.90;99.70;;;;;;5060627;28;20486;-62
2022/10/03 10:21:50;;;;;;;16.37;9.97;;;18.90;99.60;;;;;;5046303;28;20470;-62
2022/10/03 10:24:50;;;;;;;20.33;10.30;;;19.00;99.20;;;;;;5071579;28;20474;-62
2022/10/03 10:27:58;;;;;;;24.73;9.40;;;19.00;98.30;;;;;;5071558;28;20471;-62
2022/10/03 10:31:01;;;;;;;19.07;8.90;;;19.00;99.40;;;;;;5056682;28;20469;-62
2022/10/03 10:34:10;;;;;;;30.90;11.17;;;19.00;98.20;;;;;;5071489;28;20472;-62
2022/10/03 10:37:22;;;;;;;26.60;7.60;;;19.20;99.40;;;;;;5056880;28;20498;-62
2022/10/03 10:40:28;;;;;;;25.63;7.50;;;19.30;98.40;;;;;;5072151;28;20486;-62
2022/10/03 10:43:29;;;;;;;30.03;8.57;;;19.40;98.40;;;;;;5068036;28;20466;-62
2022/10/03 10:46:25;;;;;;;12.30;7.30;;;19.30;98.50;;;;;;5069501;28;20471;-62
2022/10/03 10:49:37;;;;;;;8.83;6.33;;;19.20;97.80;;;;;;5069016;28;20437;-62
2022/10/03 10:52:52;;;;;;;18.47;9.57;;;19.20;98.60;;;;;;5068474;28;20478;-62
2022/10/03 10:55:50;;;;;;;17.90;8.50;;;19.10;97.50;;;;;;5046481;28;20482;-62
2022/10/03 10:59:02;;;;;;;14.13;8.77;;;19.00;97.70;;;;;;5065051;28;20452;-62
2022/10/03 11:02:04;;;;;;;13.60;11.17;;;19.00;97.60;;;;;;5056067;28;20555;-62
2022/10/03 11:04:53;;;;;;;17.60;10.93;;;;;;;;;;5065627;28;20492;-62
2022/10/03 11:07:54;;;;;;;13.50;7.63;;;19.50;98.60;;;;;;5068056;28;20806;-62
2022/10/03 11:10:36;;;;;;;22.80;8.67;;;19.90;98.80;;;;;;5071630;28;20858;-62
2022/10/03 11:13:56;;;;;;;10.20;7.73;;;20.20;97.00;;;;;;5060947;28;20482;-62
2022/10/03 11:17:01;;;;;;;17.80;10.57;;;20.30;96.10;;;;;;5067050;28;20571;-63
2022/10/03 11:19:58;;;;;;;12.27;8.27;;;20.10;95.50;;;;;;5067369;28;20962;-62
2022/10/03 11:23:11;;;;;;;11.93;9.33;;;19.70;95.70;;;;;;5068236;28;20856;-62
2022/10/03 11:25:52;;;;;;;9.93;7.23;;;;;;;;;;5038191;28;20449;-62
2022/10/03 11:28:50;;;;;;;12.37;7.47;;;19.60;96.20;;;;;;5062970;28;20478;-62
2022/10/03 11:31:55;;;;;;;16.70;7.40;;;19.90;97.30;;;;;;5065276;28;20470;-62
2022/10/03 11:34:56;;;;;;;25.93;8.13;;;20.00;95.80;;;;;;5058910;28;20481;-62
2022/10/03 11:37:50;;;;;;;10.53;8.30;;;19.80;94.70;;;;;;5073422;28;20605;-62
2022/10/03 11:40:35;;;;;;;9.50;7.83;;;19.70;94.60;;;;;;5034762;28;20482;-62
2022/10/03 11:43:50;;;;;;;9.30;6.93;;;19.50;94.90;;;;;;5076743;28;20485;-62
2022/10/03 11:46:27;;;;;;;13.50;7.90;;;19.30;94.80;;;;;;5061024;28;20469;-62
2022/10/03 11:49:00;;;;;;;15.53;8.60;;;19.10;95.70;;;;;;5068029;28;20485;-61
2022/10/03 11:51:41;;;;;;;13.57;9.33;;;19.20;95.70;;;;;;5068916;28;20481;-61
2022/10/03 11:54:22;;;;;;;10.00;6.13;;;19.50;95.70;;;;;;5069730;28;20462;-61
2022/10/03 11:56:51;;;;;;;12.70;6.97;;;19.50;94.80;;;;;;5061123;28;20477;-61
2022/10/03 11:59:51;;;;;;;15.93;8.60;;;19.90;94.10;;;;;;5073300;28;20474;-61
2022/10/03 12:02:39;;;;;;;18.37;9.27;;;20.10;94.30;;;;;;5054557;28;20882;-61
2022/10/03 12:05:14;;;;;;;14.20;7.40;;;20.30;93.70;;;;;;5072456;28;20565;-61
2022/10/03 12:10:42;;;;;;;20.73;10.80;;;20.90;93.50;;;;;;5070671;28;20987;-61
2022/10/03 12:13:13;;;;;;;7.80;4.93;;;21.10;92.00;;;;;;5073641;28;20771;-62
2022/10/03 12:15:45;;;;;;;9.50;6.93;;;21.30;93.70;;;;;;5075708;28;20812;-62
2022/10/03 12:18:21;;;;;;;10.53;6.17;;;21.50;92.50;;;;;;5058793;28;20474;-62
2022/10/03 12:21:12;;;;;;;9.03;6.40;;;21.80;92.80;;;;;;5055238;28;20482;-62
2022/10/03 12:24:06;;;;;;;12.43;5.87;;;21.80;90.80;;;;;;5057002;28;20455;-61
2022/10/03 12:26:51;;;;;;;10.03;7.73;;;21.90;91.90;;;;;;5067135;28;20742;-62
2022/10/03 12:29:20;;;;;;;10.50;6.17;;;21.70;90.30;;;;;;5061139;28;20471;-61
2022/10/03 12:31:56;;;;;;;7.33;6.20;;;21.30;90.70;;;;;;5069522;28;20506;-62
2022/10/03 12:34:37;;;;;;;13.07;8.30;;;21.30;91.00;;;;;;5071768;28;21017;-61
2022/10/03 12:37:22;;;;;;;7.53;6.33;;;21.30;92.60;;;;;;5069595;28;21324;-62
2022/10/03 12:39:59;;;;;;;14.07;8.00;;;21.20;92.00;;;;;;5057251;28;20561;-61
2022/10/03 12:42:30;;;;;;;11.00;9.30;;;21.10;92.40;;;;;;5065102;28;20460;-62
2022/10/03 12:45:00;;;;;;;8.37;6.77;;;21.10;92.50;;;;;;5057722;28;20572;-63
2022/10/03 12:47:37;;;;;;;9.87;8.63;;;21.10;92.00;;;;;;5064299;28;20850;-62
2022/10/03 12:50:16;;;;;;;10.10;5.33;;;21.30;91.50;;;;;;5057372;28;20486;-63
2022/10/03 12:52:53;;;;;;;15.43;5.73;;;21.50;92.10;;;;;;5053978;28;20858;-62
2022/10/03 12:55:27;;;;;;;10.10;5.20;;;21.80;92.40;;;;;;5056682;28;20477;-62
2022/10/03 12:58:02;;;;;;;6.60;6.00;;;22.00;91.80;;;;;;5069254;28;20619;-63
2022/10/03 13:00:36;;;;;;;5.83;4.53;;;22.00;90.80;;;;;;5062300;28;20467;-63
2022/10/03 13:03:19;;;;;;;9.40;5.70;;;22.00;91.10;;;;;;5060504;28;20991;-63
2022/10/03 13:06:14;;;;;;;20.43;4.33;;;22.00;91.20;;;;;;5064576;28;20494;-62
2022/10/03 13:08:52;;;;;;;5.87;4.90;;;22.00;90.70;;;;;;5066339;28;20478;-62
2022/10/03 13:11:31;;;;;;;10.77;6.77;;;21.80;90.00;;;;;;5057885;28;20448;-62
2022/10/03 13:14:15;;;;;;;10.20;6.60;;;21.50;90.30;;;;;;5062563;28;20445;-63
2022/10/03 13:16:49;;;;;;;14.10;5.77;;;21.30;90.80;;;;;;5062296;28;21061;-63
2022/10/03 13:19:20;;;;;;;8.80;6.67;;;20.90;90.20;;;;;;5051540;28;20477;-63
2022/10/03 13:22:06;;;;;;;6.83;4.57;;;20.80;90.70;;;;;;5067495;28;20577;-63
2022/10/03 13:24:39;;;;;;;10.03;5.67;;;20.60;90.90;;;;;;5066126;28;20810;-63
2022/10/03 13:27:30;;;;;;;8.03;4.37;;;20.70;89.50;;;;;;5065601;28;21090;-62
2022/10/03 13:30:06;;;;;;;13.30;4.23;;;20.90;90.30;;;;;;5054086;28;20478;-62
2022/10/03 13:32:34;;;;;;;6.20;4.30;;;21.10;91.40;;;;;;5065460;28;20598;-62
2022/10/03 13:38:15;;;;;;;9.93;4.60;;;21.70;90.70;;;;;;5057450;28;21039;-62
2022/10/03 13:40:47;;;;;;;8.00;5.13;;;21.90;85.00;;;;;;5067316;28;20799;-62
2022/10/03 13:43:21;;;;;;;6.70;4.57;;;22.20;89.00;;;;;;5052064;28;20482;-62
2022/10/03 13:45:55;;;;;;;8.60;4.00;;;21.70;88.00;;;;;;5065883;28;20497;-62
2022/10/03 13:48:26;;;;;;;5.37;3.27;;;21.90;89.00;;;;;;5062502;28;20463;-62
2022/10/03 13:51:01;;;;;;;9.33;4.67;;;21.90;89.00;;;;;;5052045;28;21294;-63
2022/10/03 13:53:51;;;;;;;6.33;4.30;;;21.90;89.70;;;;;;5064679;28;20449;-62
2022/10/03 13:56:30;;;;;;;10.53;4.23;;;22.10;90.50;;;;;;5063015;28;20712;-62
2022/10/03 13:59:04;;;;;;;8.10;4.43;;;22.20;89.10;;;;;;5061258;28;20466;-62
2022/10/03 14:01:42;;;;;;;10.93;5.03;;;22.30;88.90;;;;;;5060158;28;20448;-62
2022/10/03 14:04:40;;;;;;;8.33;4.87;;;22.40;90.40;;;;;;5067644;28;20726;-62
2022/10/03 14:07:15;;;;;;;6.73;4.43;;;22.50;87.60;;;;;;5025844;28;20769;-62
2022/10/03 14:10:05;;;;;;;7.17;4.90;;;22.50;84.60;;;;;;5066513;28;20456;-62
2022/10/03 14:12:46;;;;;;;7.67;6.03;;;22.40;86.50;;;;;;5057078;28;21016;-62
2022/10/03 14:15:29;;;;;;;9.13;4.90;;;22.20;85.90;;;;;;5064706;28;20474;-62
2022/10/03 14:18:08;;;;;;;5.97;5.43;;;22.00;87.20;;;;;;5066315;28;20455;-62
2022/10/03 14:20:41;;;;;;;11.93;8.70;;;21.60;87.10;;;;;;5052207;28;20456;-62
2022/10/03 14:23:24;;;;;;;17.00;8.87;;;21.30;86.50;;;;;;5066759;28;20449;-62
2022/10/03 14:25:58;;;;;;;17.27;8.73;;;21.50;90.00;;;;;;5058227;28;20961;-61
2022/10/03 14:28:30;;;;;;;11.40;9.33;;;21.50;89.10;;;;;;5063551;28;20466;-61
2022/10/03 14:31:06;;;;;;;17.13;7.47;;;21.10;87.60;;;;;;5052022;28;20768;-62
2022/10/03 14:33:43;;;;;;;15.23;8.97;;;21.80;87.30;;;;;;5062005;28;20872;-62
2022/10/03 14:36:39;;;;;;;21.80;7.20;;;22.00;87.00;;;;;;5063842;28;22161;-63
2022/10/03 14:39:28;;;;;;;7.10;5.77;;;22.20;87.20;;;;;;5056004;28;20478;-62
2022/10/03 14:42:28;;;;;;;11.93;8.60;;;22.40;85.50;;;;;;5036893;28;20888;-62
2022/10/03 14:44:58;;;;;;;10.27;7.90;;;22.30;84.20;;;;;;5060723;28;20482;-63
2022/10/03 14:47:27;;;;;;;10.50;6.53;;;22.30;84.00;;;;;;5066161;28;20468;-63